DuBois Regional Airport
KDUJ : rendu visible

Aérodrome :











RETROUVEZ-NOUS SUR...

 
LOGIN :

S'inscrire | Disclaimer

   EN    FR    IT 

 









Légende :    VFR   VFR Marginal   IFR   IFR Intensif   IFR Très Intensif
Visi : 
Plafond : 
>= 8 km
>= 3000ft
5 à 8 km
1000 à 3000 ft
1500m à 5 km
500 à 1000 ft
800 à 1500m
200 à 500 ft
< 800m
< 200 ft
Symboles :   Orages  Brouillard  Fortes neiges  Fortes précipitations  Vent > 20 kt






- Altitude de l'aérodrome : 1817 ft
- Code IATA : DUJ


KDUJ - DuBois Regional

DERNIER METAR :
  • 081253Z AUTO 31008KT 10SM OVC009 11/09 A2962 RMK AO2 CIG 006V011 SLP028 T01110094

METARs EXPIRÉS :
  • 081201Z AUTO 29007KT 10SM OVC005 11/09 A2962 RMK AO2 CIG 003V009 T01060094
  • 081153Z AUTO 29008KT 10SM OVC004 11/10 A2962 RMK AO2 CIG 003V008 SLP027 60008 70077 T01060100 10106 20089 53019
  • 081113Z AUTO 27007KT 7SM OVC004 11/09 A2960 RMK AO2 T01060094
  • 081053Z AUTO 26008KT 3/4SM BR OVC003 10/09 A2959 RMK AO2 SLP018 T01000094
  • 081033Z AUTO 26006KT 5SM BR OVC004 10/09 A2958 RMK AO2 T01000094
  • 081026Z AUTO 27005KT 2SM BR OVC004 10/09 A2958 RMK AO2 T01000094
  • 081001Z AUTO 26005KT 1/2SM FG BKN002 OVC006 09/09 A2956 RMK AO2 T00940089

TAF KDUJ
Valide du 08 à 12h jusqu'au 09 à 12h UTC


081129Z 0812/0912 27006KT P6SM OVC008
TEMPO 0812/0814 BKN003
FM081600 29008G18KT P6SM BKN015
FM081900 29011G20KT P6SM BKN025
FM090000 14004KT P6SM SCT035
FM090900 21010KT P6SM -SHRA BKN025



MET'MAP, la Météo Aéronautique d'un coup d'oeil ! - Copyright ORBIFLY Décembre 2007 - Disclaimer

ORBIFLY MET'MAP TEAM :

Programmation & Développement : Alexandra Zaïnal
Sur une idée originale de : Baudouin d'Aumeries
Assistance à la programmation : Marc-Olivier Méhu
Soutien technique & logistique : Manuel Goepfert

Contact : metmap@orbifly.com




SOURCES & CREDITS :

   NOAA       Earth
Advisory